sensor_id;sensor_type;location;lat;lon;timestamp;P1;durP1;ratioP1;P2;durP2;ratioP2
45358;SDS011;31096;49.292;8.710;2023-04-08T00:03:52;7.53;;;4.60;;
45358;SDS011;31096;49.292;8.710;2023-04-08T00:08:42;9.52;;;5.47;;
45358;SDS011;31096;49.292;8.710;2023-04-08T00:13:33;9.20;;;5.40;;
45358;SDS011;31096;49.292;8.710;2023-04-08T00:18:24;8.80;;;5.53;;
45358;SDS011;31096;49.292;8.710;2023-04-08T00:23:14;10.02;;;6.30;;
45358;SDS011;31096;49.292;8.710;2023-04-08T00:28:05;8.37;;;5.17;;
45358;SDS011;31096;49.292;8.710;2023-04-08T00:32:56;9.23;;;5.15;;
45358;SDS011;31096;49.292;8.710;2023-04-08T00:37:47;8.83;;;5.43;;
45358;SDS011;31096;49.292;8.710;2023-04-08T00:42:38;9.35;;;5.10;;
45358;SDS011;31096;49.292;8.710;2023-04-08T00:47:29;9.40;;;5.50;;
45358;SDS011;31096;49.292;8.710;2023-04-08T00:52:20;9.27;;;4.03;;
45358;SDS011;31096;49.292;8.710;2023-04-08T00:57:10;9.70;;;5.22;;
45358;SDS011;31096;49.292;8.710;2023-04-08T01:06:58;7.22;;;4.22;;
45358;SDS011;31096;49.292;8.710;2023-04-08T01:11:56;9.23;;;5.50;;
45358;SDS011;31096;49.292;8.710;2023-04-08T01:16:49;10.48;;;6.05;;
45358;SDS011;31096;49.292;8.710;2023-04-08T01:21:40;8.37;;;5.13;;
45358;SDS011;31096;49.292;8.710;2023-04-08T01:26:31;8.90;;;5.53;;
45358;SDS011;31096;49.292;8.710;2023-04-08T01:31:22;9.70;;;5.43;;
45358;SDS011;31096;49.292;8.710;2023-04-08T01:36:13;9.02;;;5.10;;
45358;SDS011;31096;49.292;8.710;2023-04-08T01:41:07;8.32;;;4.90;;
45358;SDS011;31096;49.292;8.710;2023-04-08T01:45:59;8.77;;;4.90;;
45358;SDS011;31096;49.292;8.710;2023-04-08T01:50:50;9.60;;;5.65;;
45358;SDS011;31096;49.292;8.710;2023-04-08T01:55:41;7.43;;;4.57;;
45358;SDS011;31096;49.292;8.710;2023-04-08T02:00:32;7.43;;;4.15;;
45358;SDS011;31096;49.292;8.710;2023-04-08T02:05:24;8.50;;;4.82;;
45358;SDS011;31096;49.292;8.710;2023-04-08T02:10:14;7.37;;;4.37;;
45358;SDS011;31096;49.292;8.710;2023-04-08T02:15:05;8.90;;;5.47;;
45358;SDS011;31096;49.292;8.710;2023-04-08T02:25:07;10.13;;;5.13;;
45358;SDS011;31096;49.292;8.710;2023-04-08T02:30:02;9.10;;;5.07;;
45358;SDS011;31096;49.292;8.710;2023-04-08T02:34:54;8.88;;;4.80;;
45358;SDS011;31096;49.292;8.710;2023-04-08T02:39:45;8.70;;;4.07;;
45358;SDS011;31096;49.292;8.710;2023-04-08T02:44:36;8.40;;;5.20;;
45358;SDS011;31096;49.292;8.710;2023-04-08T02:49:27;7.77;;;4.60;;
45358;SDS011;31096;49.292;8.710;2023-04-08T02:54:17;8.23;;;4.30;;
45358;SDS011;31096;49.292;8.710;2023-04-08T02:59:08;7.03;;;4.20;;
45358;SDS011;31096;49.292;8.710;2023-04-08T03:03:59;8.15;;;4.55;;
45358;SDS011;31096;49.292;8.710;2023-04-08T03:08:50;8.10;;;4.53;;
45358;SDS011;31096;49.292;8.710;2023-04-08T03:13:40;7.60;;;4.00;;
45358;SDS011;31096;49.292;8.710;2023-04-08T03:18:31;8.95;;;4.35;;
45358;SDS011;31096;49.292;8.710;2023-04-08T03:23:22;7.25;;;4.10;;
45358;SDS011;31096;49.292;8.710;2023-04-08T03:28:13;7.07;;;3.90;;
45358;SDS011;31096;49.292;8.710;2023-04-08T03:33:03;8.50;;;4.90;;
45358;SDS011;31096;49.292;8.710;2023-04-08T03:37:56;8.10;;;4.50;;
45358;SDS011;31096;49.292;8.710;2023-04-08T03:42:47;9.55;;;4.63;;
45358;SDS011;31096;49.292;8.710;2023-04-08T03:47:38;7.90;;;4.03;;
45358;SDS011;31096;49.292;8.710;2023-04-08T03:52:29;8.47;;;5.20;;
45358;SDS011;31096;49.292;8.710;2023-04-08T03:57:19;9.32;;;5.40;;
45358;SDS011;31096;49.292;8.710;2023-04-08T04:02:10;11.10;;;5.50;;
45358;SDS011;31096;49.292;8.710;2023-04-08T04:07:01;10.20;;;6.03;;
45358;SDS011;31096;49.292;8.710;2023-04-08T04:11:52;8.77;;;4.90;;
45358;SDS011;31096;49.292;8.710;2023-04-08T04:16:42;7.43;;;4.27;;
45358;SDS011;31096;49.292;8.710;2023-04-08T04:21:33;11.10;;;4.70;;
45358;SDS011;31096;49.292;8.710;2023-04-08T04:26:23;9.20;;;5.53;;
45358;SDS011;31096;49.292;8.710;2023-04-08T04:31:18;9.90;;;5.65;;
45358;SDS011;31096;49.292;8.710;2023-04-08T04:36:10;10.32;;;5.82;;
45358;SDS011;31096;49.292;8.710;2023-04-08T04:41:01;13.20;;;6.07;;
45358;SDS011;31096;49.292;8.710;2023-04-08T04:45:52;7.55;;;4.70;;
45358;SDS011;31096;49.292;8.710;2023-04-08T04:50:42;12.33;;;5.90;;
45358;SDS011;31096;49.292;8.710;2023-04-08T04:55:33;12.23;;;6.93;;
45358;SDS011;31096;49.292;8.710;2023-04-08T05:00:24;8.18;;;5.05;;
45358;SDS011;31096;49.292;8.710;2023-04-08T05:05:14;9.67;;;5.60;;
45358;SDS011;31096;49.292;8.710;2023-04-08T05:10:05;10.10;;;5.50;;
45358;SDS011;31096;49.292;8.710;2023-04-08T05:14:57;11.30;;;5.40;;
45358;SDS011;31096;49.292;8.710;2023-04-08T05:19:51;10.02;;;5.60;;
45358;SDS011;31096;49.292;8.710;2023-04-08T05:24:42;8.55;;;5.68;;
45358;SDS011;31096;49.292;8.710;2023-04-08T05:29:33;10.98;;;6.22;;
45358;SDS011;31096;49.292;8.710;2023-04-08T05:34:24;11.87;;;5.90;;
45358;SDS011;31096;49.292;8.710;2023-04-08T05:39:15;9.98;;;5.70;;
45358;SDS011;31096;49.292;8.710;2023-04-08T05:44:06;10.13;;;5.87;;
45358;SDS011;31096;49.292;8.710;2023-04-08T05:48:56;8.65;;;5.70;;
45358;SDS011;31096;49.292;8.710;2023-04-08T05:53:47;9.50;;;5.70;;
45358;SDS011;31096;49.292;8.710;2023-04-08T05:58:38;10.53;;;6.27;;
45358;SDS011;31096;49.292;8.710;2023-04-08T06:03:29;9.50;;;5.40;;
45358;SDS011;31096;49.292;8.710;2023-04-08T06:08:19;9.23;;;5.95;;
45358;SDS011;31096;49.292;8.710;2023-04-08T06:13:10;9.98;;;6.45;;
45358;SDS011;31096;49.292;8.710;2023-04-08T06:18:01;7.15;;;4.80;;
45358;SDS011;31096;49.292;8.710;2023-04-08T06:22:52;8.83;;;5.63;;
45358;SDS011;31096;49.292;8.710;2023-04-08T06:27:42;9.40;;;5.53;;
45358;SDS011;31096;49.292;8.710;2023-04-08T06:32:33;8.13;;;5.33;;
45358;SDS011;31096;49.292;8.710;2023-04-08T06:37:24;10.50;;;6.43;;
45358;SDS011;31096;49.292;8.710;2023-04-08T06:42:15;8.87;;;5.87;;
45358;SDS011;31096;49.292;8.710;2023-04-08T06:47:05;10.00;;;6.23;;
45358;SDS011;31096;49.292;8.710;2023-04-08T06:51:56;10.63;;;6.93;;
45358;SDS011;31096;49.292;8.710;2023-04-08T06:56:47;13.13;;;6.45;;
45358;SDS011;31096;49.292;8.710;2023-04-08T07:01:37;11.23;;;6.87;;
45358;SDS011;31096;49.292;8.710;2023-04-08T07:06:28;10.32;;;6.95;;
45358;SDS011;31096;49.292;8.710;2023-04-08T07:11:19;11.10;;;7.63;;
45358;SDS011;31096;49.292;8.710;2023-04-08T07:16:10;11.50;;;7.77;;
45358;SDS011;31096;49.292;8.710;2023-04-08T07:21:00;10.50;;;6.90;;
45358;SDS011;31096;49.292;8.710;2023-04-08T07:25:51;11.93;;;7.87;;
45358;SDS011;31096;49.292;8.710;2023-04-08T07:30:42;13.95;;;8.48;;
45358;SDS011;31096;49.292;8.710;2023-04-08T07:35:33;13.63;;;8.10;;
45358;SDS011;31096;49.292;8.710;2023-04-08T07:40:24;11.23;;;7.43;;
45358;SDS011;31096;49.292;8.710;2023-04-08T07:45:15;12.00;;;7.25;;
45358;SDS011;31096;49.292;8.710;2023-04-08T07:50:06;10.93;;;7.20;;
45358;SDS011;31096;49.292;8.710;2023-04-08T07:54:57;11.75;;;7.90;;
45358;SDS011;31096;49.292;8.710;2023-04-08T07:59:47;9.33;;;6.77;;
45358;SDS011;31096;49.292;8.710;2023-04-08T08:04:38;10.57;;;6.63;;
45358;SDS011;31096;49.292;8.710;2023-04-08T08:09:29;9.23;;;6.17;;
45358;SDS011;31096;49.292;8.710;2023-04-08T08:14:19;11.30;;;6.90;;
45358;SDS011;31096;49.292;8.710;2023-04-08T08:19:10;11.60;;;6.68;;
45358;SDS011;31096;49.292;8.710;2023-04-08T08:24:02;11.10;;;6.40;;
45358;SDS011;31096;49.292;8.710;2023-04-08T08:28:53;11.97;;;6.90;;
45358;SDS011;31096;49.292;8.710;2023-04-08T08:33:44;11.18;;;6.90;;
45358;SDS011;31096;49.292;8.710;2023-04-08T08:38:36;12.33;;;7.27;;
45358;SDS011;31096;49.292;8.710;2023-04-08T08:43:27;11.43;;;7.72;;
45358;SDS011;31096;49.292;8.710;2023-04-08T08:48:18;11.00;;;6.83;;
45358;SDS011;31096;49.292;8.710;2023-04-08T08:53:09;11.10;;;6.88;;
45358;SDS011;31096;49.292;8.710;2023-04-08T08:58:01;10.98;;;7.38;;
45358;SDS011;31096;49.292;8.710;2023-04-08T09:02:52;13.30;;;7.20;;
45358;SDS011;31096;49.292;8.710;2023-04-08T09:07:42;11.23;;;6.88;;
45358;SDS011;31096;49.292;8.710;2023-04-08T09:12:33;11.60;;;6.73;;
45358;SDS011;31096;49.292;8.710;2023-04-08T09:17:31;11.48;;;6.82;;
45358;SDS011;31096;49.292;8.710;2023-04-08T09:22:28;11.57;;;7.93;;
45358;SDS011;31096;49.292;8.710;2023-04-08T09:27:33;12.13;;;7.47;;
45358;SDS011;31096;49.292;8.710;2023-04-08T09:32:25;10.40;;;6.68;;
45358;SDS011;31096;49.292;8.710;2023-04-08T09:37:46;12.37;;;8.07;;
45358;SDS011;31096;49.292;8.710;2023-04-08T09:42:39;12.57;;;7.88;;
45358;SDS011;31096;49.292;8.710;2023-04-08T09:47:30;14.70;;;8.23;;
45358;SDS011;31096;49.292;8.710;2023-04-08T09:52:36;11.63;;;8.20;;
45358;SDS011;31096;49.292;8.710;2023-04-08T09:57:45;12.53;;;8.33;;
45358;SDS011;31096;49.292;8.710;2023-04-08T10:08:19;12.13;;;8.05;;
45358;SDS011;31096;49.292;8.710;2023-04-08T10:13:11;13.37;;;8.70;;
45358;SDS011;31096;49.292;8.710;2023-04-08T10:22:55;12.57;;;7.27;;
45358;SDS011;31096;49.292;8.710;2023-04-08T10:27:46;11.95;;;8.02;;
45358;SDS011;31096;49.292;8.710;2023-04-08T10:32:39;9.68;;;6.20;;
45358;SDS011;31096;49.292;8.710;2023-04-08T10:37:31;12.63;;;7.93;;
45358;SDS011;31096;49.292;8.710;2023-04-08T10:42:25;10.85;;;7.60;;
45358;SDS011;31096;49.292;8.710;2023-04-08T10:47:23;12.70;;;7.57;;
45358;SDS011;31096;49.292;8.710;2023-04-08T10:52:17;12.55;;;7.45;;
45358;SDS011;31096;49.292;8.710;2023-04-08T10:57:09;13.20;;;7.75;;
45358;SDS011;31096;49.292;8.710;2023-04-08T11:01:59;17.90;;;8.33;;
45358;SDS011;31096;49.292;8.710;2023-04-08T11:06:53;11.20;;;7.55;;
45358;SDS011;31096;49.292;8.710;2023-04-08T11:11:45;11.67;;;8.00;;
45358;SDS011;31096;49.292;8.710;2023-04-08T11:16:39;13.20;;;9.07;;
45358;SDS011;31096;49.292;8.710;2023-04-08T11:21:36;11.88;;;7.95;;
45358;SDS011;31096;49.292;8.710;2023-04-08T11:26:27;15.07;;;9.03;;
45358;SDS011;31096;49.292;8.710;2023-04-08T11:31:19;11.50;;;7.63;;
45358;SDS011;31096;49.292;8.710;2023-04-08T11:36:11;10.83;;;7.23;;
45358;SDS011;31096;49.292;8.710;2023-04-08T11:41:02;10.77;;;7.07;;
45358;SDS011;31096;49.292;8.710;2023-04-08T11:45:54;11.50;;;7.63;;
45358;SDS011;31096;49.292;8.710;2023-04-08T11:50:45;12.07;;;7.38;;
45358;SDS011;31096;49.292;8.710;2023-04-08T11:55:35;14.70;;;8.07;;
45358;SDS011;31096;49.292;8.710;2023-04-08T12:00:26;11.87;;;7.63;;
45358;SDS011;31096;49.292;8.710;2023-04-08T12:05:17;11.37;;;7.77;;
45358;SDS011;31096;49.292;8.710;2023-04-08T12:10:08;11.75;;;7.72;;
45358;SDS011;31096;49.292;8.710;2023-04-08T12:15:00;11.40;;;8.03;;
45358;SDS011;31096;49.292;8.710;2023-04-08T12:19:51;13.93;;;8.97;;
45358;SDS011;31096;49.292;8.710;2023-04-08T12:24:41;12.17;;;7.73;;
45358;SDS011;31096;49.292;8.710;2023-04-08T12:29:32;11.73;;;7.43;;
45358;SDS011;31096;49.292;8.710;2023-04-08T12:34:23;11.57;;;7.87;;
45358;SDS011;31096;49.292;8.710;2023-04-08T12:39:14;10.63;;;6.40;;
45358;SDS011;31096;49.292;8.710;2023-04-08T12:44:04;10.43;;;7.37;;
45358;SDS011;31096;49.292;8.710;2023-04-08T12:48:55;10.87;;;6.33;;
45358;SDS011;31096;49.292;8.710;2023-04-08T12:53:46;10.47;;;5.97;;
45358;SDS011;31096;49.292;8.710;2023-04-08T12:58:37;9.50;;;6.10;;
45358;SDS011;31096;49.292;8.710;2023-04-08T13:03:28;9.87;;;6.13;;
45358;SDS011;31096;49.292;8.710;2023-04-08T13:08:20;9.40;;;6.40;;
45358;SDS011;31096;49.292;8.710;2023-04-08T13:13:12;10.80;;;7.07;;
45358;SDS011;31096;49.292;8.710;2023-04-08T13:18:03;8.77;;;5.68;;
45358;SDS011;31096;49.292;8.710;2023-04-08T13:22:53;8.67;;;5.50;;
45358;SDS011;31096;49.292;8.710;2023-04-08T13:27:44;9.25;;;6.03;;
45358;SDS011;31096;49.292;8.710;2023-04-08T13:32:35;8.77;;;5.90;;
45358;SDS011;31096;49.292;8.710;2023-04-08T13:37:26;11.18;;;6.53;;
45358;SDS011;31096;49.292;8.710;2023-04-08T13:42:17;8.27;;;5.77;;
45358;SDS011;31096;49.292;8.710;2023-04-08T13:47:08;10.38;;;6.97;;
45358;SDS011;31096;49.292;8.710;2023-04-08T13:51:59;10.83;;;7.07;;
45358;SDS011;31096;49.292;8.710;2023-04-08T13:56:49;10.17;;;6.30;;
45358;SDS011;31096;49.292;8.710;2023-04-08T14:01:40;10.03;;;6.60;;
45358;SDS011;31096;49.292;8.710;2023-04-08T14:06:31;9.43;;;6.00;;
45358;SDS011;31096;49.292;8.710;2023-04-08T14:11:22;9.80;;;6.57;;
45358;SDS011;31096;49.292;8.710;2023-04-08T14:16:13;7.97;;;5.33;;
45358;SDS011;31096;49.292;8.710;2023-04-08T14:21:05;8.70;;;5.00;;
45358;SDS011;31096;49.292;8.710;2023-04-08T14:25:56;10.35;;;6.30;;
45358;SDS011;31096;49.292;8.710;2023-04-08T14:30:47;8.93;;;6.23;;
45358;SDS011;31096;49.292;8.710;2023-04-08T14:35:37;7.80;;;5.30;;
45358;SDS011;31096;49.292;8.710;2023-04-08T14:40:28;7.75;;;4.78;;
45358;SDS011;31096;49.292;8.710;2023-04-08T14:45:19;7.50;;;5.40;;
45358;SDS011;31096;49.292;8.710;2023-04-08T14:50:12;7.47;;;4.57;;
45358;SDS011;31096;49.292;8.710;2023-04-08T14:55:04;7.57;;;4.67;;
45358;SDS011;31096;49.292;8.710;2023-04-08T14:59:56;7.57;;;5.22;;
45358;SDS011;31096;49.292;8.710;2023-04-08T15:04:47;7.53;;;4.70;;
45358;SDS011;31096;49.292;8.710;2023-04-08T15:09:38;9.47;;;5.23;;
45358;SDS011;31096;49.292;8.710;2023-04-08T15:14:29;8.77;;;6.00;;
45358;SDS011;31096;49.292;8.710;2023-04-08T15:19:20;7.97;;;5.13;;
45358;SDS011;31096;49.292;8.710;2023-04-08T15:24:11;8.82;;;5.30;;
45358;SDS011;31096;49.292;8.710;2023-04-08T15:29:01;8.07;;;5.30;;
45358;SDS011;31096;49.292;8.710;2023-04-08T15:33:53;9.55;;;5.25;;
45358;SDS011;31096;49.292;8.710;2023-04-08T15:38:47;8.50;;;4.80;;
45358;SDS011;31096;49.292;8.710;2023-04-08T15:43:37;7.45;;;4.70;;
45358;SDS011;31096;49.292;8.710;2023-04-08T15:48:28;7.47;;;4.17;;
45358;SDS011;31096;49.292;8.710;2023-04-08T15:53:19;5.88;;;3.15;;
45358;SDS011;31096;49.292;8.710;2023-04-08T15:58:10;6.13;;;2.73;;
45358;SDS011;31096;49.292;8.710;2023-04-08T16:03:00;5.10;;;2.17;;
45358;SDS011;31096;49.292;8.710;2023-04-08T16:07:51;4.77;;;2.40;;
45358;SDS011;31096;49.292;8.710;2023-04-08T16:12:42;4.75;;;2.53;;
45358;SDS011;31096;49.292;8.710;2023-04-08T16:17:33;5.37;;;2.93;;
45358;SDS011;31096;49.292;8.710;2023-04-08T16:22:25;5.25;;;3.00;;
45358;SDS011;31096;49.292;8.710;2023-04-08T16:27:16;5.63;;;3.43;;
45358;SDS011;31096;49.292;8.710;2023-04-08T16:32:07;5.63;;;3.40;;
45358;SDS011;31096;49.292;8.710;2023-04-08T16:36:58;5.20;;;2.97;;
45358;SDS011;31096;49.292;8.710;2023-04-08T16:41:49;5.07;;;3.03;;
45358;SDS011;31096;49.292;8.710;2023-04-08T16:46:40;4.73;;;3.00;;
45358;SDS011;31096;49.292;8.710;2023-04-08T16:51:32;4.90;;;3.17;;
45358;SDS011;31096;49.292;8.710;2023-04-08T16:56:22;5.35;;;3.05;;
45358;SDS011;31096;49.292;8.710;2023-04-08T17:01:13;5.90;;;2.90;;
45358;SDS011;31096;49.292;8.710;2023-04-08T17:06:08;5.72;;;3.28;;
45358;SDS011;31096;49.292;8.710;2023-04-08T17:11:04;5.50;;;3.40;;
45358;SDS011;31096;49.292;8.710;2023-04-08T17:16:03;5.75;;;3.60;;
45358;SDS011;31096;49.292;8.710;2023-04-08T17:20:54;4.80;;;3.08;;
45358;SDS011;31096;49.292;8.710;2023-04-08T17:25:45;6.80;;;3.77;;
45358;SDS011;31096;49.292;8.710;2023-04-08T17:30:52;5.35;;;3.53;;
45358;SDS011;31096;49.292;8.710;2023-04-08T17:35:42;5.13;;;3.10;;
45358;SDS011;31096;49.292;8.710;2023-04-08T17:40:33;5.35;;;2.83;;
45358;SDS011;31096;49.292;8.710;2023-04-08T17:45:25;5.87;;;3.03;;
45358;SDS011;31096;49.292;8.710;2023-04-08T17:50:16;5.32;;;3.08;;
45358;SDS011;31096;49.292;8.710;2023-04-08T17:55:07;4.80;;;2.33;;
45358;SDS011;31096;49.292;8.710;2023-04-08T17:59:58;5.10;;;3.17;;
45358;SDS011;31096;49.292;8.710;2023-04-08T18:04:49;5.28;;;3.13;;
45358;SDS011;31096;49.292;8.710;2023-04-08T18:09:40;4.90;;;3.00;;
45358;SDS011;31096;49.292;8.710;2023-04-08T18:14:31;6.03;;;3.20;;
45358;SDS011;31096;49.292;8.710;2023-04-08T18:19:21;5.13;;;3.20;;
45358;SDS011;31096;49.292;8.710;2023-04-08T18:24:15;5.10;;;2.90;;
45358;SDS011;31096;49.292;8.710;2023-04-08T18:29:06;6.27;;;3.33;;
45358;SDS011;31096;49.292;8.710;2023-04-08T18:33:56;5.47;;;3.65;;
45358;SDS011;31096;49.292;8.710;2023-04-08T18:38:47;5.87;;;3.17;;
45358;SDS011;31096;49.292;8.710;2023-04-08T18:43:38;6.03;;;3.55;;
45358;SDS011;31096;49.292;8.710;2023-04-08T18:48:29;6.10;;;3.60;;
45358;SDS011;31096;49.292;8.710;2023-04-08T18:53:20;5.95;;;3.33;;
45358;SDS011;31096;49.292;8.710;2023-04-08T18:58:11;5.70;;;4.10;;
45358;SDS011;31096;49.292;8.710;2023-04-08T19:03:02;6.33;;;3.50;;
45358;SDS011;31096;49.292;8.710;2023-04-08T19:07:53;7.40;;;4.20;;
45358;SDS011;31096;49.292;8.710;2023-04-08T19:12:44;5.50;;;3.50;;
45358;SDS011;31096;49.292;8.710;2023-04-08T19:17:35;6.40;;;4.05;;
45358;SDS011;31096;49.292;8.710;2023-04-08T19:22:26;6.40;;;4.33;;
45358;SDS011;31096;49.292;8.710;2023-04-08T19:27:17;6.22;;;3.65;;
45358;SDS011;31096;49.292;8.710;2023-04-08T19:32:07;6.03;;;3.60;;
45358;SDS011;31096;49.292;8.710;2023-04-08T19:36:58;6.15;;;4.00;;
45358;SDS011;31096;49.292;8.710;2023-04-08T19:41:49;6.30;;;3.80;;
45358;SDS011;31096;49.292;8.710;2023-04-08T19:46:40;7.20;;;4.33;;
45358;SDS011;31096;49.292;8.710;2023-04-08T19:51:31;6.63;;;4.07;;
45358;SDS011;31096;49.292;8.710;2023-04-08T19:56:22;7.53;;;4.63;;
45358;SDS011;31096;49.292;8.710;2023-04-08T20:01:12;6.55;;;3.90;;
45358;SDS011;31096;49.292;8.710;2023-04-08T20:06:04;6.27;;;3.67;;
45358;SDS011;31096;49.292;8.710;2023-04-08T20:10:55;6.77;;;4.33;;
45358;SDS011;31096;49.292;8.710;2023-04-08T20:15:48;6.30;;;4.03;;
45358;SDS011;31096;49.292;8.710;2023-04-08T20:20:38;6.63;;;4.40;;
45358;SDS011;31096;49.292;8.710;2023-04-08T20:25:30;7.53;;;4.70;;
45358;SDS011;31096;49.292;8.710;2023-04-08T20:30:21;6.13;;;4.03;;
45358;SDS011;31096;49.292;8.710;2023-04-08T20:35:12;7.30;;;3.85;;
45358;SDS011;31096;49.292;8.710;2023-04-08T20:40:02;7.17;;;3.83;;
45358;SDS011;31096;49.292;8.710;2023-04-08T20:44:54;5.63;;;3.25;;
45358;SDS011;31096;49.292;8.710;2023-04-08T20:49:45;5.47;;;3.60;;
45358;SDS011;31096;49.292;8.710;2023-04-08T20:54:35;6.13;;;3.80;;
45358;SDS011;31096;49.292;8.710;2023-04-08T20:59:26;5.57;;;3.25;;
45358;SDS011;31096;49.292;8.710;2023-04-08T21:04:17;7.30;;;4.20;;
45358;SDS011;31096;49.292;8.710;2023-04-08T21:09:08;7.07;;;4.05;;
45358;SDS011;31096;49.292;8.710;2023-04-08T21:14:00;7.60;;;4.03;;
45358;SDS011;31096;49.292;8.710;2023-04-08T21:18:51;6.50;;;3.92;;
45358;SDS011;31096;49.292;8.710;2023-04-08T21:23:41;5.73;;;3.40;;
45358;SDS011;31096;49.292;8.710;2023-04-08T21:28:32;6.93;;;4.32;;
45358;SDS011;31096;49.292;8.710;2023-04-08T21:33:23;6.13;;;4.03;;
45358;SDS011;31096;49.292;8.710;2023-04-08T21:38:13;7.50;;;4.17;;
45358;SDS011;31096;49.292;8.710;2023-04-08T21:43:05;8.13;;;4.50;;
45358;SDS011;31096;49.292;8.710;2023-04-08T21:47:55;7.83;;;4.37;;
45358;SDS011;31096;49.292;8.710;2023-04-08T21:52:46;8.15;;;3.75;;
45358;SDS011;31096;49.292;8.710;2023-04-08T21:57:37;7.60;;;4.50;;
45358;SDS011;31096;49.292;8.710;2023-04-08T22:02:28;6.63;;;3.85;;
45358;SDS011;31096;49.292;8.710;2023-04-08T22:07:19;7.87;;;4.40;;
45358;SDS011;31096;49.292;8.710;2023-04-08T22:12:09;6.97;;;4.23;;
45358;SDS011;31096;49.292;8.710;2023-04-08T22:17:00;7.47;;;3.88;;
45358;SDS011;31096;49.292;8.710;2023-04-08T22:21:51;8.87;;;4.93;;
45358;SDS011;31096;49.292;8.710;2023-04-08T22:26:41;8.37;;;4.37;;
45358;SDS011;31096;49.292;8.710;2023-04-08T22:31:32;8.05;;;4.32;;
45358;SDS011;31096;49.292;8.710;2023-04-08T22:36:23;7.60;;;4.30;;
45358;SDS011;31096;49.292;8.710;2023-04-08T22:41:20;7.77;;;3.87;;
45358;SDS011;31096;49.292;8.710;2023-04-08T22:46:12;7.18;;;4.40;;
45358;SDS011;31096;49.292;8.710;2023-04-08T22:51:03;9.57;;;5.53;;
45358;SDS011;31096;49.292;8.710;2023-04-08T22:55:54;7.50;;;4.40;;
45358;SDS011;31096;49.292;8.710;2023-04-08T23:00:45;6.70;;;4.03;;
45358;SDS011;31096;49.292;8.710;2023-04-08T23:05:35;7.85;;;4.38;;
45358;SDS011;31096;49.292;8.710;2023-04-08T23:10:26;8.97;;;4.93;;
45358;SDS011;31096;49.292;8.710;2023-04-08T23:15:17;7.13;;;4.00;;
45358;SDS011;31096;49.292;8.710;2023-04-08T23:20:07;8.32;;;4.40;;
45358;SDS011;31096;49.292;8.710;2023-04-08T23:24:58;8.27;;;4.07;;
45358;SDS011;31096;49.292;8.710;2023-04-08T23:29:50;8.10;;;4.65;;
45358;SDS011;31096;49.292;8.710;2023-04-08T23:34:40;7.97;;;4.63;;
45358;SDS011;31096;49.292;8.710;2023-04-08T23:39:31;8.07;;;4.67;;
45358;SDS011;31096;49.292;8.710;2023-04-08T23:44:22;7.55;;;4.10;;
45358;SDS011;31096;49.292;8.710;2023-04-08T23:49:12;10.10;;;4.70;;
45358;SDS011;31096;49.292;8.710;2023-04-08T23:54:03;9.00;;;4.80;;
45358;SDS011;31096;49.292;8.710;2023-04-08T23:58:54;8.85;;;4.68;;
